CKT5 weather

Hartney Airport
Hartney, Manitoba, Canada

Public forecast

Using degrees Celsius for public forecast. Weather courtesy of forecast.io.

METAR (pilot weather report)

Closest report is Brandon Municipal Airport, 36.1 nm (66.8 km) NE. Retrieved 2019/05/21 08:00 UTC (24 minutes ago):

CYBR 210800Z 07006KT 15SM SKC 05/M04 A3011 RMK SLP209

TAF (pilot weather forecast)

Closest forecast is Brandon Municipal Airport, 36.1 nm (66.8 km) NE. Retrieved 2019/05/21 06:42 UTC (2 hours ago):

TAF CYBR 210538Z 2106/2118 06008KT P6SM FEW250 BECMG 2108/2110 VRB03KT BECMG 2113/2115 08010KT FM211700 09015KT P6SM SCT170 RMK NXT FCST BY 211200Z